Time;durP1;ratioP1;P1;durP2;ratioP2;P2;SDS_P1;SDS_P2;PMS_P1;PMS_P2;Temp;Humidity;BMP_temperature;BMP_pressure;BME280_temperature;BME280_humidity;BME280_pressure;Samples;Min_cycle;Max_cycle;Signal;HPM_P1;HPM_P2
2022/05/24 00:00:05;;;;;;;3.25;2.65;;;;;;;14.52;90.71;99607.88;5030252;28;20218;-48
2022/05/24 00:02:37;;;;;;;4.65;2.47;;;;;;;14.31;92.39;99595.03;5030843;28;20314;-51
2022/05/24 00:05:04;;;;;;;4.28;3.00;;;;;;;14.24;94.12;99604.53;5030141;28;20183;-48
2022/05/24 00:07:30;;;;;;;4.68;2.80;;;;;;;14.24;94.23;99592.91;5030655;28;20314;-50
2022/05/24 00:09:56;;;;;;;4.75;3.28;;;;;;;14.11;95.80;99588.41;5030891;28;20295;-50
2022/05/24 00:12:22;;;;;;;4.93;3.13;;;;;;;14.00;96.91;99581.09;5030557;28;20600;-49
2022/05/24 00:17:32;;;;;;;5.45;3.80;;;;;;;13.69;100.00;99592.38;5030136;28;20553;-49
2022/05/24 00:19:57;;;;;;;5.03;3.55;;;;;;;13.64;100.00;99581.06;5030375;28;20168;-47
2022/05/24 00:22:23;;;;;;;6.80;3.70;;;;;;;13.68;100.00;99566.41;5030165;28;20200;-48
2022/05/24 00:24:48;;;;;;;6.43;3.40;;;;;;;13.53;100.00;99579.97;5030406;28;20238;-48
2022/05/24 00:27:13;;;;;;;5.80;3.95;;;;;;;13.56;100.00;99568.16;5030768;28;20176;-50
2022/05/24 00:29:39;;;;;;;5.60;3.78;;;;;;;13.56;100.00;99563.63;5030804;28;20536;-50
2022/05/24 00:32:04;;;;;;;6.43;3.80;;;;;;;13.51;100.00;99560.41;5030770;28;20261;-50
2022/05/24 00:34:30;;;;;;;5.25;3.45;;;;;;;13.60;100.00;99548.97;5030458;28;20278;-48
2022/05/24 00:36:55;;;;;;;5.68;3.78;;;;;;;13.55;100.00;99550.28;5031003;28;20179;-48
2022/05/24 00:39:21;;;;;;;6.45;4.40;;;;;;;13.55;100.00;99540.34;5031023;28;20176;-48
2022/05/24 00:42:01;;;;;;;6.75;3.90;;;;;;;13.53;100.00;99554.91;5030419;28;20576;-50
2022/05/24 00:44:32;;;;;;;5.25;3.88;;;;;;;13.41;100.00;99540.50;5029115;28;20191;-48
2022/05/24 00:47:10;;;;;;;10.02;4.10;;;;;;;13.42;100.00;99535.97;5030917;28;20532;-51
2022/05/24 00:49:43;;;;;;;5.70;4.05;;;;;;;13.38;100.00;99528.13;5030773;28;20183;-50
2022/05/24 00:52:16;;;;;;;4.10;3.80;;;;;;;13.39;100.00;99528.97;5030550;28;20203;-48
2022/05/24 00:54:44;;;;;;;7.22;3.92;;;;;;;13.35;100.00;99519.41;5030184;28;20172;-48
2022/05/24 00:57:32;;;;;;;6.38;3.80;;;;;;;13.32;100.00;99525.00;5030446;28;20172;-48
2022/05/24 01:00:19;;;;;;;7.15;4.13;;;;;;;13.23;100.00;99518.41;5030404;28;20183;-51
2022/05/24 01:02:45;;;;;;;5.75;4.05;;;;;;;13.25;100.00;99520.97;5030473;28;20223;-47
2022/05/24 01:05:15;;;;;;;6.68;4.18;;;;;;;13.26;100.00;99511.94;5030103;28;20246;-49
2022/05/24 01:07:41;;;;;;;5.15;4.35;;;;;;;13.27;100.00;99519.03;5030330;28;20212;-50
2022/05/24 01:10:11;;;;;;;6.40;4.70;;;;;;;13.17;100.00;99524.22;5029535;28;20214;-50
2022/05/24 01:12:42;;;;;;;5.80;3.78;;;;;;;13.24;100.00;99530.03;5030036;28;20212;-50
2022/05/24 01:15:11;;;;;;;5.72;3.83;;;;;;;13.21;100.00;99523.03;5030203;28;20221;-49
2022/05/24 01:17:38;;;;;;;7.43;4.00;;;;;;;13.23;100.00;99513.03;5020346;28;20203;-50
2022/05/24 01:20:05;;;;;;;7.05;4.15;;;;;;;13.16;100.00;99511.72;5014189;28;20185;-49
2022/05/24 01:22:53;;;;;;;7.53;4.57;;;;;;;13.16;100.00;99506.34;5009884;28;20593;-49
2022/05/24 01:25:28;;;;;;;8.15;4.53;;;;;;;13.27;100.00;99498.41;5010358;28;20263;-51
2022/05/24 01:27:54;;;;;;;5.05;4.28;;;;;;;13.20;100.00;99514.09;5016518;28;20179;-50
2022/05/24 01:30:19;;;;;;;6.95;4.20;;;;;;;13.15;100.00;99505.50;5029990;28;20176;-50
2022/05/24 01:38:17;;;;;;;6.28;4.25;;;;;;;13.22;100.00;99505.06;5029380;28;20724;-49
2022/05/24 01:40:43;;;;;;;7.10;5.10;;;;;;;13.20;100.00;99495.25;5030199;28;20551;-50
2022/05/24 01:43:09;;;;;;;5.18;4.60;;;;;;;13.15;100.00;99492.03;5027738;28;20224;-49
2022/05/24 01:45:48;;;;;;;5.35;4.60;;;;;;;13.16;100.00;99483.03;5030048;28;20172;-49
2022/05/24 01:48:17;;;;;;;8.95;4.93;;;;;;;13.20;100.00;99483.66;5029786;28;20207;-49
2022/05/24 01:50:46;;;;;;;8.73;4.95;;;;;;;13.16;100.00;99495.59;5030064;28;20168;-48
2022/05/24 01:53:16;;;;;;;5.70;5.20;;;;;;;13.16;100.00;99498.28;5029008;28;20193;-47
2022/05/24 01:55:47;;;;;;;6.18;4.85;;;;;;;13.14;100.00;99493.03;5029681;28;20184;-48
2022/05/24 01:58:15;;;;;;;7.85;5.03;;;;;;;13.11;100.00;99498.59;5029673;28;20630;-52
2022/05/24 02:00:47;;;;;;;5.50;5.00;;;;;;;13.21;100.00;99501.53;5029627;28;20651;-48
2022/05/24 02:03:16;;;;;;;8.10;4.75;;;;;;;13.11;100.00;99497.75;5029271;28;20278;-49
2022/05/24 02:05:50;;;;;;;9.38;4.30;;;;;;;13.19;100.00;99507.00;5029536;28;20192;-48
2022/05/24 02:08:16;;;;;;;6.35;5.15;;;;;;;13.19;100.00;99496.25;5029938;28;20570;-48
2022/05/24 02:10:59;;;;;;;6.40;5.28;;;;;;;13.14;100.00;99498.41;5029770;28;20242;-49
2022/05/24 02:13:37;;;;;;;8.57;5.65;;;;;;;13.14;100.00;99489.44;5028838;28;20192;-48
2022/05/24 02:16:08;;;;;;;6.20;5.40;;;;;;;13.08;100.00;99492.59;5029995;28;20179;-49
2022/05/24 02:18:38;;;;;;;5.78;5.15;;;;;;;13.04;100.00;99496.47;5030169;28;20510;-48
2022/05/24 02:21:04;;;;;;;9.50;5.88;;;;;;;13.03;100.00;99506.38;5029622;28;20188;-48
2022/05/24 02:23:29;;;;;;;7.95;5.65;;;;;;;13.04;100.00;99489.25;5031874;28;20219;-50
2022/05/24 02:25:58;;;;;;;6.55;5.93;;;;;;;13.07;100.00;99491.72;5033301;28;20179;-48
2022/05/24 02:28:27;;;;;;;10.00;6.05;;;;;;;13.07;100.00;99491.72;5032676;28;20639;-50
2022/05/24 02:30:58;;;;;;;6.75;5.80;;;;;;;13.12;100.00;99504.88;5033043;28;20171;-48
2022/05/24 02:33:24;;;;;;;10.00;6.57;;;;;;;13.16;100.00;99512.59;5032280;28;20192;-50
2022/05/24 02:35:49;;;;;;;6.53;5.88;;;;;;;13.23;100.00;99509.47;5032826;28;20278;-49
2022/05/24 02:38:15;;;;;;;7.03;5.50;;;;;;;13.28;100.00;99520.78;5032837;28;20160;-48
2022/05/24 02:43:30;;;;;;;6.88;6.13;;;;;;;13.26;100.00;99509.25;5032708;28;20200;-52
2022/05/24 02:45:56;;;;;;;7.05;6.43;;;;;;;13.27;100.00;99514.53;5032995;28;20251;-50
2022/05/24 02:48:22;;;;;;;7.82;6.03;;;;;;;13.38;100.00;99514.69;5032620;28;20242;-49
2022/05/24 02:50:47;;;;;;;7.70;6.63;;;;;;;13.35;100.00;99527.47;5032922;28;20222;-50
2022/05/24 02:53:13;;;;;;;8.63;6.88;;;;;;;13.43;100.00;99524.25;5032262;28;20200;-51
2022/05/24 02:55:38;;;;;;;9.27;7.25;;;;;;;13.42;100.00;99523.38;5032790;28;20624;-48
2022/05/24 02:58:04;;;;;;;7.65;6.97;;;;;;;13.47;100.00;99526.63;5032742;28;20188;-48
2022/05/24 03:00:29;;;;;;;7.65;6.95;;;;;;;13.59;100.00;99541.88;5032527;28;20279;-51
2022/05/24 03:02:55;;;;;;;10.45;8.32;;;;;;;13.58;100.00;99544.69;5032314;28;20254;-51
2022/05/24 03:05:21;;;;;;;11.90;8.75;;;;;;;13.66;100.00;99536.91;5032040;28;20701;-52
2022/05/24 03:10:32;;;;;;;11.30;10.15;;;;;;;13.53;100.00;99541.44;5031127;28;20184;-48
2022/05/24 03:15:42;;;;;;;10.63;9.52;;;;;;;13.53;100.00;99566.50;5031871;28;20249;-52
2022/05/24 03:18:09;;;;;;;9.73;8.82;;;;;;;13.55;100.00;99567.28;5020615;28;20283;-50
2022/05/24 03:20:35;;;;;;;7.95;7.15;;;;;;;13.52;100.00;99569.34;5016687;28;20180;-48
2022/05/24 03:23:03;;;;;;;7.80;7.10;;;;;;;13.54;100.00;99579.00;5011317;28;20280;-48
2022/05/24 03:25:31;;;;;;;8.02;6.85;;;;;;;13.52;100.00;99580.09;5012026;28;20596;-47
2022/05/24 03:27:58;;;;;;;7.93;7.00;;;;;;;13.57;100.00;99578.78;5015068;28;20195;-48
2022/05/24 03:30:25;;;;;;;7.90;6.38;;;;;;;13.54;100.00;99576.31;5010197;28;20169;-48
2022/05/24 03:32:50;;;;;;;6.38;5.78;;;;;;;13.50;100.00;99584.72;5011163;28;20276;-48
2022/05/24 03:35:16;;;;;;;6.22;5.63;;;;;;;13.41;100.00;99580.84;5010839;28;20255;-50
2022/05/24 03:37:41;;;;;;;6.30;5.68;;;;;;;13.39;100.00;99586.31;5011913;28;20565;-48
2022/05/24 03:40:08;;;;;;;5.28;4.80;;;;;;;13.49;100.00;99596.44;5010641;28;20203;-51
2022/05/24 03:42:33;;;;;;;5.97;4.93;;;;;;;13.35;100.00;99583.97;5011379;28;20795;-48
2022/05/24 03:45:00;;;;;;;5.85;4.97;;;;;;;13.32;100.00;99590.44;5011180;28;20168;-49
2022/05/24 03:47:26;;;;;;;6.70;5.18;;;;;;;13.32;100.00;99598.50;5011623;28;20732;-49
2022/05/24 03:49:52;;;;;;;8.73;5.57;;;;;;;13.32;100.00;99606.56;5011432;28;20214;-50
2022/05/24 03:52:17;;;;;;;8.90;7.97;;;;;;;13.22;100.00;99607.28;5011530;28;20564;-50
2022/05/24 03:54:43;;;;;;;8.90;7.90;;;;;;;13.13;100.00;99608.75;5010843;28;20184;-50
2022/05/24 03:59:52;;;;;;;9.10;8.20;;;;;;;13.24;100.00;99618.78;5011049;28;20199;-48
2022/05/24 04:02:18;;;;;;;12.20;9.88;;;;;;;13.24;100.00;99629.53;5011310;28;20266;-49
2022/05/24 04:04:43;;;;;;;10.07;9.02;;;;;;;13.25;100.00;99633.94;5010721;28;20200;-52
2022/05/24 04:07:09;;;;;;;12.40;10.50;;;;;;;13.15;100.00;99645.34;5011059;28;20189;-49
2022/05/24 04:09:35;;;;;;;12.60;11.10;;;;;;;13.11;100.00;99638.44;5011609;28;20169;-49
2022/05/24 04:12:01;;;;;;;16.02;12.60;;;;;;;13.10;100.00;99643.94;5011386;28;20246;-49
2022/05/24 04:14:32;;;;;;;16.85;12.95;;;;;;;13.12;100.00;99660.84;5011079;28;20552;-51
2022/05/24 04:16:58;;;;;;;18.65;14.35;;;;;;;13.17;100.00;99670.31;5011637;28;20188;-50
2022/05/24 04:19:24;;;;;;;20.85;15.80;;;;;;;12.98;100.00;99667.13;5011293;28;20502;-49
2022/05/24 04:21:49;;;;;;;21.92;14.70;;;;;;;12.99;100.00;99683.16;5011312;28;20717;-49
2022/05/24 04:24:17;;;;;;;18.65;13.25;;;;;;;12.91;100.00;99685.50;5010533;28;20231;-50
2022/05/24 04:26:46;;;;;;;16.35;10.40;;;;;;;12.87;100.00;99693.88;5011178;28;20165;-50
2022/05/24 04:29:12;;;;;;;12.13;8.90;;;;;;;12.86;100.00;99697.53;5027559;28;20184;-49
2022/05/24 04:31:38;;;;;;;11.20;7.75;;;;;;;12.89;100.00;99708.06;5030806;28;20574;-49
2022/05/24 04:34:04;;;;;;;9.65;7.43;;;;;;;12.95;100.00;99708.53;5030382;28;20179;-49
2022/05/24 04:36:31;;;;;;;8.80;7.13;;;;;;;12.96;100.00;99701.31;5030741;28;20187;-51
2022/05/24 04:38:57;;;;;;;9.45;7.03;;;;;;;12.95;100.00;99708.53;5029446;28;20570;-48
2022/05/24 04:44:07;;;;;;;12.68;6.63;;;;;;;12.92;100.00;99719.50;5030161;28;20183;-48
2022/05/24 04:49:19;;;;;;;11.73;6.20;;;;;;;12.97;100.00;99722.72;5030582;28;20205;-49
2022/05/24 04:51:45;;;;;;;11.75;6.50;;;;;;;12.91;100.00;99727.66;5030158;28;20191;-51
2022/05/24 04:54:11;;;;;;;9.70;6.13;;;;;;;13.02;100.00;99733.19;5030143;28;20587;-49
2022/05/24 04:56:36;;;;;;;12.18;5.93;;;;;;;13.06;100.00;99723.09;5030440;28;20168;-50
2022/05/24 04:59:02;;;;;;;8.80;5.63;;;;;;;13.08;100.00;99729.22;5030510;28;20176;-51
2022/05/24 05:01:28;;;;;;;12.32;5.15;;;;;;;13.24;100.00;99729.91;5030270;28;20199;-50
2022/05/24 05:03:53;;;;;;;8.48;5.03;;;;;;;13.30;100.00;99744.84;5030253;28;20174;-49
2022/05/24 05:06:20;;;;;;;8.40;4.47;;;;;;;13.22;100.00;99749.81;5030038;28;20245;-50
2022/05/24 05:08:46;;;;;;;8.27;4.60;;;;;;;13.10;100.00;99749.69;5030206;28;20230;-50
2022/05/24 05:11:11;;;;;;;7.65;4.22;;;;;;;13.12;100.00;99746.91;5030531;28;20204;-50
2022/05/24 05:13:36;;;;;;;9.05;4.43;;;;;;;13.23;100.00;99744.34;5028435;28;20321;-50
2022/05/24 05:16:02;;;;;;;8.85;4.60;;;;;;;13.26;100.00;99743.28;5030392;28;20176;-50
2022/05/24 05:18:28;;;;;;;11.50;4.82;;;;;;;13.19;100.00;99745.50;5030243;28;20237;-50
2022/05/24 05:20:53;;;;;;;8.52;4.45;;;;;;;13.13;100.00;99746.78;5028810;28;20176;-51
2022/05/24 05:23:19;;;;;;;6.35;4.07;;;;;;;13.11;100.00;99748.69;5029762;28;20663;-49
2022/05/24 05:25:48;;;;;;;8.27;3.92;;;;;;;12.93;100.00;99758.00;5030077;28;20196;-47
2022/05/24 05:28:18;;;;;;;6.47;3.97;;;;;;;12.98;100.00;99767.47;5030341;28;20172;-50
2022/05/24 05:33:32;;;;;;;6.38;4.05;;;;;;;13.17;100.00;99774.34;5029502;28;20168;-48
2022/05/24 05:35:57;;;;;;;9.57;4.20;;;;;;;13.11;100.00;99770.22;5030045;28;20648;-49
2022/05/24 05:38:23;;;;;;;8.70;4.28;;;;;;;13.20;100.00;99777.66;5030116;28;20179;-47
2022/05/24 05:40:53;;;;;;;10.07;4.13;;;;;;;13.17;100.00;99785.94;5030388;28;20184;-48
2022/05/24 05:43:20;;;;;;;10.90;3.70;;;;;;;13.11;100.00;99786.34;5029438;28;20215;-48
2022/05/24 05:45:54;;;;;;;6.47;3.47;;;;;;;13.18;100.00;99793.06;5030127;28;20169;-49
2022/05/24 05:48:20;;;;;;;7.60;3.65;;;;;;;13.24;100.00;99799.84;5029663;28;20238;-48
2022/05/24 05:50:47;;;;;;;7.13;3.35;;;;;;;13.22;100.00;99795.56;5028763;28;20171;-50
2022/05/24 05:53:16;;;;;;;6.65;3.17;;;;;;;13.03;100.00;99804.84;5013973;28;20247;-50
2022/05/24 05:55:42;;;;;;;5.72;3.33;;;;;;;13.07;100.00;99808.16;5009995;28;20185;-49
2022/05/24 05:58:10;;;;;;;5.70;3.28;;;;;;;13.20;100.00;99804.56;5013330;28;20240;-51
2022/05/24 06:00:37;;;;;;;5.63;3.20;;;;;;;13.20;100.00;99814.47;5013804;28;20687;-49
2022/05/24 06:03:03;;;;;;;5.40;2.88;;;;;;;13.18;100.00;99817.28;5011581;28;20204;-48
2022/05/24 06:05:28;;;;;;;8.68;3.35;;;;;;;13.16;100.00;99835.34;5013226;28;20578;-49
2022/05/24 06:07:55;;;;;;;11.80;3.20;;;;;;;13.21;100.00;99818.91;5013160;28;20268;-50
2022/05/24 06:10:21;;;;;;;7.38;3.08;;;;;;;13.22;100.00;99811.69;5013382;28;20276;-50
2022/05/24 06:12:47;;;;;;;7.18;3.25;;;;;;;13.11;100.00;99823.16;5012868;28;20267;-51
2022/05/24 06:15:13;;;;;;;8.07;3.60;;;;;;;13.11;100.00;99817.75;5012826;28;20251;-52
2022/05/24 06:17:46;;;;;;;9.55;3.30;;;;;;;13.14;100.00;99831.00;5013225;28;20607;-51
2022/05/24 06:20:15;;;;;;;8.35;3.75;;;;;;;13.23;100.00;99824.16;5011891;28;20176;-49
2022/05/24 06:22:40;;;;;;;6.63;2.80;;;;;;;13.11;100.00;99828.53;5013223;28;20212;-50
2022/05/24 06:25:08;;;;;;;6.53;2.97;;;;;;;13.15;100.00;99852.44;5010848;28;20165;-50
2022/05/24 06:27:33;;;;;;;6.82;3.85;;;;;;;13.25;100.00;99841.94;5014887;28;20267;-50
2022/05/24 06:29:59;;;;;;;7.85;2.92;;;;;;;13.19;100.00;99859.34;5030816;28;20718;-48
2022/05/24 06:32:24;;;;;;;9.63;3.67;;;;;;;13.16;100.00;99864.94;5030827;28;20234;-50
2022/05/24 06:34:52;;;;;;;6.35;3.47;;;;;;;13.15;100.00;99862.31;5032678;28;20635;-50
2022/05/24 06:37:20;;;;;;;4.55;2.90;;;;;;;13.13;100.00;99870.47;5031399;28;20549;-48
2022/05/24 06:39:48;;;;;;;6.60;3.42;;;;;;;13.20;100.00;99877.19;5031753;28;20171;-49
2022/05/24 06:42:14;;;;;;;8.05;3.65;;;;;;;13.24;100.00;99874.31;5031923;28;20254;-52
2022/05/24 06:44:39;;;;;;;5.20;3.42;;;;;;;13.18;100.00;99863.00;5032272;28;20266;-49
2022/05/24 06:47:05;;;;;;;6.15;3.50;;;;;;;13.30;100.00;99873.97;5031760;28;20176;-49
2022/05/24 06:49:31;;;;;;;7.38;3.47;;;;;;;13.30;100.00;99865.88;5032099;28;20651;-48
2022/05/24 06:51:57;;;;;;;7.28;4.15;;;;;;;13.29;100.00;99870.38;5032633;28;20196;-50
2022/05/24 06:54:22;;;;;;;8.52;4.13;;;;;;;13.29;100.00;99864.16;5030760;28;20168;-51
2022/05/24 06:56:49;;;;;;;7.65;4.60;;;;;;;13.06;100.00;99869.16;5030907;28;20172;-53
2022/05/24 07:04:42;;;;;;;6.03;3.95;;;;;;;13.72;100.00;99872.09;5047453;28;20704;-49
2022/05/24 07:07:07;;;;;;;6.35;4.20;;;;;;;13.87;100.00;99884.53;5021017;28;20184;-49
2022/05/24 07:09:33;;;;;;;8.48;3.80;;;;;;;14.11;100.00;99887.41;5012358;28;20230;-52
2022/05/24 07:11:59;;;;;;;8.75;4.30;;;;;;;14.43;100.00;99898.66;5010997;28;20652;-51
2022/05/24 07:14:25;;;;;;;6.85;3.80;;;;;;;14.43;98.79;99897.81;5007649;28;20172;-51
2022/05/24 07:16:51;;;;;;;5.32;3.50;;;;;;;14.53;98.02;99898.88;5008750;28;20169;-48
2022/05/24 07:19:17;;;;;;;8.65;3.60;;;;;;;14.38;98.05;99900.78;5010153;28;20180;-48
2022/05/24 07:21:44;;;;;;;8.20;3.67;;;;;;;14.53;97.41;99903.41;5009744;28;20595;-48
2022/05/24 07:24:10;;;;;;;7.70;3.78;;;;;;;14.49;97.22;99915.38;5009477;28;20454;-45
2022/05/24 07:26:35;;;;;;;6.57;3.63;;;;;;;14.45;96.68;99924.63;5009977;28;20188;-49
2022/05/24 07:29:01;;;;;;;7.40;3.58;;;;;;;14.33;96.70;99924.50;5024600;28;20798;-48
2022/05/24 07:31:26;;;;;;;7.43;3.35;;;;;;;14.34;97.03;99919.97;5029805;28;20286;-48
2022/05/24 07:33:51;;;;;;;5.90;3.60;;;;;;;14.30;97.06;99913.06;5029938;28;20175;-49
2022/05/24 07:36:17;;;;;;;6.47;3.63;;;;;;;14.47;96.64;99923.56;5030331;28;20302;-48
2022/05/24 07:38:42;;;;;;;6.38;3.10;;;;;;;14.51;95.28;99927.75;5030043;28;20696;-48
2022/05/24 07:46:35;;;;;;;5.15;2.83;;;;;;;15.03;92.76;99931.38;5029844;28;20513;-48
2022/05/24 07:49:01;;;;;;;4.63;2.50;;;;;;;15.42;90.76;99927.63;5029516;28;20238;-48
2022/05/24 07:51:27;;;;;;;3.38;2.53;;;;;;;15.38;89.26;99933.38;5029838;28;20188;-48
2022/05/24 07:53:52;;;;;;;4.15;2.33;;;;;;;15.41;88.36;99927.75;5029285;28;20530;-47
2022/05/24 07:56:19;;;;;;;4.22;2.53;;;;;;;15.44;87.45;99944.59;5030118;28;20306;-47
2022/05/24 07:58:46;;;;;;;2.72;2.20;;;;;;;15.55;87.22;99956.44;5029711;28;20520;-47
2022/05/24 08:01:13;;;;;;;5.85;2.60;;;;;;;15.53;86.44;99945.75;5030006;28;20301;-46
2022/05/24 08:03:41;;;;;;;5.15;2.55;;;;;;;15.82;85.99;99958.97;5031098;28;20176;-47
2022/05/24 08:06:07;;;;;;;4.47;2.78;;;;;;;15.43;86.23;99955.50;5029978;28;20274;-48
2022/05/24 08:08:33;;;;;;;3.42;2.75;;;;;;;15.57;86.34;99949.97;5031423;28;20180;-47
2022/05/24 08:10:59;;;;;;;4.13;2.50;;;;;;;15.57;86.43;99954.50;5031247;28;20249;-47
2022/05/24 08:13:24;;;;;;;4.55;2.88;;;;;;;15.25;86.34;99969.34;5030680;28;20198;-46
2022/05/24 08:15:51;;;;;;;5.47;2.70;;;;;;;15.20;86.66;99982.31;5030788;28;20231;-47
2022/05/24 08:18:18;;;;;;;4.85;2.90;;;;;;;15.17;87.24;99970.84;5030775;28;20657;-46
2022/05/24 08:20:44;;;;;;;3.95;3.17;;;;;;;15.09;87.84;99978.66;5029240;28;20176;-49
2022/05/24 08:23:09;;;;;;;3.58;2.80;;;;;;;15.14;88.29;99977.34;5030451;28;20585;-49
2022/05/24 08:25:35;;;;;;;5.57;3.53;;;;;;;15.08;88.67;99979.59;5031239;28;20265;-49
2022/05/24 08:28:05;;;;;;;4.10;2.83;;;;;;;14.99;88.99;99981.13;5030778;28;20184;-48
2022/05/24 08:30:31;;;;;;;6.28;3.78;;;;;;;14.76;89.37;99994.38;5030547;28;20218;-47
2022/05/24 08:32:57;;;;;;;4.70;3.72;;;;;;;14.61;89.34;99984.66;5030763;28;20192;-48
2022/05/24 08:35:23;;;;;;;4.50;4.03;;;;;;;14.54;90.09;99991.38;5030462;28;20529;-48
2022/05/24 08:37:49;;;;;;;5.65;4.28;;;;;;;14.47;90.58;99982.84;5030931;28;20180;-47
2022/05/24 08:40:17;;;;;;;5.75;4.40;;;;;;;14.51;91.11;99988.91;5029348;28;20262;-46
2022/05/24 08:43:01;;;;;;;5.50;4.70;;;;;;;14.48;91.34;99992.69;5030655;28;20203;-49
2022/05/24 08:48:28;;;;;;;7.28;5.10;;;;;;;14.54;91.20;100002.16;5030761;28;20286;-48
2022/05/24 08:51:01;;;;;;;9.90;5.72;;;;;;;14.64;90.90;99987.13;5029224;28;20168;-48
2022/05/24 08:53:42;;;;;;;7.20;5.10;;;;;;;15.06;90.11;99995.91;5020630;28;20571;-47
2022/05/24 08:56:12;;;;;;;4.97;4.45;;;;;;;15.36;89.03;100003.66;5015632;28;20591;-46
2022/05/24 08:58:44;;;;;;;7.05;5.00;;;;;;;15.20;88.35;99995.78;5010375;28;20188;-47
2022/05/24 09:01:32;;;;;;;5.90;5.30;;;;;;;15.46;87.94;99990.38;5010295;28;20176;-49
2022/05/24 09:04:02;;;;;;;7.93;6.45;;;;;;;15.51;87.64;99998.16;5009763;28;20617;-47
2022/05/24 09:06:38;;;;;;;6.57;5.75;;;;;;;15.66;87.00;99992.50;5010479;28;20191;-46
2022/05/24 09:09:28;;;;;;;6.90;5.72;;;;;;;16.35;86.45;99997.31;5010162;28;20176;-46
2022/05/24 09:12:29;;;;;;;8.00;6.40;;;;;;;16.26;84.91;99998.03;5009016;28;20710;-45
2022/05/24 09:15:06;;;;;;;6.65;5.32;;;;;;;16.43;85.12;100002.16;5009526;28;20173;-47
2022/05/24 09:17:56;;;;;;;6.32;5.60;;;;;;;16.18;84.50;100004.03;5010272;28;20612;-45
2022/05/24 09:20:25;;;;;;;5.85;5.22;;;;;;;15.88;85.56;100017.09;5009823;28;20219;-45
2022/05/24 09:22:56;;;;;;;7.40;5.93;;;;;;;15.87;85.60;100013.53;5008996;28;20212;-46
2022/05/24 09:25:22;;;;;;;7.85;5.68;;;;;;;16.07;85.07;100009.38;5009438;28;20661;-47
2022/05/24 09:27:51;;;;;;;8.65;5.80;;;;;;;16.08;84.97;100012.94;5013888;28;20267;-47
2022/05/24 09:30:36;;;;;;;7.10;6.03;;;;;;;16.02;84.64;100015.09;5028822;28;20259;-46
2022/05/24 09:33:23;;;;;;;6.95;6.35;;;;;;;15.90;85.96;100023.25;5030950;28;20563;-47
2022/05/24 09:35:55;;;;;;;7.57;6.70;;;;;;;16.01;85.52;100018.78;5032596;28;20172;-47
2022/05/24 09:38:22;;;;;;;7.65;6.95;;;;;;;15.98;85.49;100019.03;5032275;28;20175;-46
2022/05/24 09:40:55;;;;;;;8.73;7.93;;;;;;;16.03;85.21;100030.34;5031882;28;20182;-48
2022/05/24 09:43:33;;;;;;;8.35;7.50;;;;;;;16.16;85.29;100013.19;5022750;28;20227;-47
2022/05/24 09:46:21;;;;;;;9.50;6.50;;;;;;;16.55;85.67;100017.47;5021331;28;20263;-46
2022/05/24 09:49:15;;;;;;;8.65;7.30;;;;;;;16.41;84.82;100015.78;5024390;28;20192;-47
2022/05/24 09:51:42;;;;;;;8.60;7.78;;;;;;;16.59;84.81;100012.66;5014708;28;20208;-47
2022/05/24 09:54:17;;;;;;;8.52;7.65;;;;;;;16.73;83.94;100027.88;5022205;28;20762;-46
2022/05/24 09:57:08;;;;;;;8.50;7.65;;;;;;;16.66;83.17;100005.81;5021758;28;20552;-46
2022/05/24 09:59:39;;;;;;;9.35;7.72;;;;;;;16.54;84.18;100018.44;5028480;28;20176;-48
2022/05/24 10:02:23;;;;;;;8.55;7.63;;;;;;;16.54;83.12;100023.00;5030176;28;20279;-47
2022/05/24 10:04:48;;;;;;;9.43;8.43;;;;;;;16.34;84.81;100036.16;5029268;28;20186;-48
2022/05/24 10:07:23;;;;;;;8.38;7.57;;;;;;;16.24;85.22;100025.16;5030613;28;20290;-46
2022/05/24 10:10:01;;;;;;;9.60;8.60;;;;;;;16.13;86.41;100029.66;5031286;28;20179;-46
2022/05/24 10:12:35;;;;;;;9.98;9.05;;;;;;;16.01;87.78;100026.88;5030881;28;20287;-47
2022/05/24 10:15:06;;;;;;;11.52;8.95;;;;;;;16.04;90.27;100031.19;5029407;28;20270;-47
2022/05/24 10:17:49;;;;;;;11.32;9.82;;;;;;;16.13;89.97;100018.84;5030879;28;20271;-48
2022/05/24 10:20:23;;;;;;;11.85;9.77;;;;;;;15.91;90.47;100033.94;5031235;28;20198;-47
2022/05/24 10:23:09;;;;;;;12.30;10.63;;;;;;;16.49;90.00;100020.63;5030722;28;20305;-47
2022/05/24 10:25:42;;;;;;;12.73;10.73;;;;;;;17.01;88.14;100030.19;5030853;28;20274;-46
2022/05/24 10:28:30;;;;;;;13.23;10.32;;;;;;;17.74;86.17;100038.84;5030672;28;20554;-47
2022/05/24 10:31:04;;;;;;;13.65;10.32;;;;;;;17.17;85.40;100046.09;5030909;28;20180;-47
2022/05/24 10:39:52;;;;;;;13.43;11.38;;;;;;;16.59;88.04;100037.88;5030716;28;20643;-47
2022/05/24 10:42:45;;;;;;;14.80;12.05;;;;;;;16.71;88.68;100051.47;5029984;28;20208;-46
2022/05/24 10:45:16;;;;;;;13.02;11.48;;;;;;;16.75;87.32;100051.09;5030047;28;20188;-48
2022/05/24 10:47:52;;;;;;;13.57;11.10;;;;;;;16.54;85.64;100058.13;5030470;28;20589;-46
2022/05/24 10:50:37;;;;;;;12.35;11.07;;;;;;;16.45;85.26;100047.03;5032167;28;20171;-45
2022/05/24 10:53:11;;;;;;;13.52;11.10;;;;;;;16.40;85.99;100061.88;5031584;28;20675;-46
2022/05/24 10:55:57;;;;;;;13.20;11.93;;;;;;;16.31;86.19;100062.56;5032074;28;20715;-48
2022/05/24 10:58:24;;;;;;;11.85;10.65;;;;;;;16.23;85.27;100071.25;5031555;28;20186;-47
2022/05/24 11:00:56;;;;;;;11.23;9.82;;;;;;;16.21;82.94;100078.59;5032145;28;20179;-47
2022/05/24 11:03:29;;;;;;;9.63;8.55;;;;;;;16.19;82.12;100084.13;5027683;28;20208;-47
2022/05/24 11:06:15;;;;;;;10.10;9.10;;;;;;;16.33;82.21;100082.22;5020699;28;20271;-45
2022/05/24 11:08:46;;;;;;;12.27;10.30;;;;;;;16.47;82.22;100080.22;5011738;28;20196;-45
2022/05/24 11:11:25;;;;;;;11.73;9.93;;;;;;;16.54;82.38;100090.59;5012062;28;20250;-46
2022/05/24 11:14:03;;;;;;;10.98;9.90;;;;;;;16.69;83.44;100089.44;5011686;28;20273;-48
2022/05/24 11:16:50;;;;;;;10.45;9.50;;;;;;;16.59;81.98;100083.84;5010703;28;20201;-45
2022/05/24 11:19:21;;;;;;;10.18;9.15;;;;;;;16.41;81.78;100088.78;5011563;28;20208;-47
2022/05/24 11:22:04;;;;;;;10.00;8.90;;;;;;;16.26;83.07;100098.03;5011792;28;20560;-47
2022/05/24 11:24:47;;;;;;;11.10;10.00;;;;;;;16.18;84.37;100095.03;5011550;28;20204;-46
2022/05/24 11:27:15;;;;;;;10.70;9.70;;;;;;;16.12;84.84;100106.31;5011626;28;20550;-45
2022/05/24 11:29:50;;;;;;;11.95;9.95;;;;;;;15.73;85.29;100111.75;5011562;28;20513;-48
2022/05/24 11:32:49;;;;;;;12.25;10.60;;;;;;;15.43;88.79;100112.91;5011383;28;20218;-45
2022/05/24 11:35:18;;;;;;;14.35;12.85;;;;;;;14.88;90.89;100110.47;5010055;28;20219;-46
2022/05/24 11:37:52;;;;;;;14.93;13.52;;;;;;;14.98;92.20;100115.13;5011389;28;20252;-46
2022/05/24 11:40:50;;;;;;;15.50;13.90;;;;;;;14.92;93.60;100128.19;5011553;28;20575;-47
2022/05/24 11:43:50;;;;;;;15.68;14.05;;;;;;;15.32;94.45;100128.13;5007715;28;20704;-47
2022/05/24 11:46:34;;;;;;;15.25;13.93;;;;;;;15.37;94.16;100136.78;5010939;28;20173;-45
2022/05/24 11:49:04;;;;;;;14.35;12.88;;;;;;;15.44;93.49;100135.41;5011047;28;20189;-47
2022/05/24 11:51:32;;;;;;;13.82;12.43;;;;;;;15.60;92.14;100135.19;5011109;28;20287;-46
2022/05/24 11:54:00;;;;;;;11.43;10.23;;;;;;;16.43;90.90;100135.50;4992475;28;20276;-47
2022/05/24 11:56:28;;;;;;;8.80;8.00;;;;;;;16.57;87.21;100137.19;5010639;28;20503;-47
2022/05/24 11:58:56;;;;;;;7.72;7.03;;;;;;;16.79;85.18;100136.47;5010901;28;20259;-45
2022/05/24 12:01:22;;;;;;;7.40;5.57;;;;;;;16.75;83.18;100145.78;5010938;28;20231;-48
2022/05/24 12:09:59;;;;;;;6.63;5.20;;;;;;;16.69;81.98;100154.34;5030702;28;20242;-46
2022/05/24 12:12:44;;;;;;;8.18;5.72;;;;;;;16.42;81.58;100159.94;5030684;28;20196;-46
2022/05/24 12:15:47;;;;;;;7.45;5.20;;;;;;;16.64;81.69;100161.97;5030409;28;20607;-46
2022/05/24 12:18:19;;;;;;;7.32;6.30;;;;;;;16.26;81.96;100168.31;5029176;28;20204;-47
2022/05/24 12:20:45;;;;;;;7.68;5.82;;;;;;;15.59;85.03;100177.53;5030653;28;20187;-48
2022/05/24 12:23:19;;;;;;;10.13;6.55;;;;;;;14.84;88.63;100196.97;5029998;28;20212;-49
2022/05/24 12:26:04;;;;;;;9.32;7.13;;;;;;;14.51;92.04;100213.50;5030410;28;20206;-48
2022/05/24 12:28:32;;;;;;;7.75;6.82;;;;;;;14.55;94.04;100227.69;5030576;28;20194;-47
2022/05/24 12:30:58;;;;;;;8.68;7.70;;;;;;;14.12;95.46;100217.75;5029202;28;20215;-49